createdAt,value
2018-09-29T00:00:28.479Z,68.39
2018-09-29T00:02:56.453Z,68.97
2018-09-29T00:05:24.067Z,68.85
2018-09-29T00:07:51.547Z,69.27
2018-09-29T00:10:19.034Z,69.46
2018-09-29T00:12:46.483Z,69.43
2018-09-29T00:15:14.055Z,69.25
2018-09-29T00:17:41.438Z,68.46
2018-09-29T00:20:08.954Z,68.50
2018-09-29T00:22:36.384Z,69.13
2018-09-29T00:25:04.183Z,69.74
2018-09-29T00:27:31.618Z,70.39
2018-09-29T00:29:59.059Z,70.92
2018-09-29T00:32:26.503Z,71.08
2018-09-29T00:34:53.986Z,71.47
2018-09-29T00:37:21.422Z,71.01
2018-09-29T00:39:49.360Z,71.21
2018-09-29T00:42:16.878Z,71.39
2018-09-29T00:44:44.354Z,71.69
2018-09-29T00:47:11.970Z,71.64
2018-09-29T00:49:39.426Z,71.50
2018-09-29T00:52:06.966Z,71.42
2018-09-29T00:54:34.374Z,71.81
2018-09-29T00:57:01.980Z,72.05
2018-09-29T00:59:29.464Z,72.14
2018-09-29T01:01:56.927Z,72.35
2018-09-29T01:04:24.452Z,72.41
2018-09-29T01:06:51.988Z,72.45
2018-09-29T01:09:19.450Z,72.58
2018-09-29T01:11:46.914Z,72.75
2018-09-29T01:14:14.399Z,72.58
2018-09-29T01:16:41.965Z,72.64
2018-09-29T01:19:09.410Z,72.75
2018-09-29T01:21:37.132Z,73.14
2018-09-29T01:24:04.549Z,73.16
2018-09-29T01:26:32.015Z,73.35
2018-09-29T01:28:59.415Z,73.45
2018-09-29T01:31:26.831Z,73.34
2018-09-29T01:33:54.240Z,73.67
2018-09-29T01:36:21.758Z,73.69
2018-09-29T01:38:49.133Z,73.60
2018-09-29T01:41:16.732Z,73.96
2018-09-29T01:43:44.247Z,73.99
2018-09-29T01:46:11.690Z,74.07
2018-09-29T01:48:39.181Z,74.24
2018-09-29T01:51:06.672Z,74.43
2018-09-29T01:53:34.190Z,74.34
2018-09-29T01:56:01.659Z,74.41
2018-09-29T01:58:29.306Z,74.20
2018-09-29T02:00:56.733Z,74.45
2018-09-29T02:03:24.146Z,74.99
2018-09-29T02:05:51.592Z,75.30
2018-09-29T02:08:19.018Z,75.40
2018-09-29T02:10:46.631Z,75.73
2018-09-29T02:13:14.133Z,75.93
2018-09-29T02:15:41.607Z,75.43
2018-09-29T02:18:09.037Z,75.48
2018-09-29T02:20:36.618Z,75.80
2018-09-29T02:23:04.188Z,75.41
2018-09-29T02:25:31.625Z,75.33
2018-09-29T02:27:59.096Z,75.73
2018-09-29T02:30:26.513Z,75.79
2018-09-29T02:32:53.965Z,76.05
2018-09-29T02:35:21.571Z,76.19
2018-09-29T02:37:48.953Z,76.16
2018-09-29T02:40:16.530Z,75.48
2018-09-29T02:42:43.918Z,75.32
2018-09-29T02:45:11.398Z,75.51
2018-09-29T02:47:39.234Z,75.63
2018-09-29T02:50:06.877Z,75.71
2018-09-29T02:52:34.390Z,75.91
2018-09-29T02:55:01.859Z,75.53
2018-09-29T02:57:29.298Z,75.18
2018-09-29T02:59:56.659Z,75.31
2018-09-29T03:02:24.094Z,75.18
2018-09-29T03:04:51.513Z,75.54
2018-09-29T03:07:18.975Z,74.67
2018-09-29T03:09:46.334Z,74.98
2018-09-29T03:12:13.685Z,75.36
2018-09-29T03:14:41.122Z,75.64
2018-09-29T03:17:08.526Z,76.15
2018-09-29T03:19:36.216Z,76.11
2018-09-29T03:22:03.781Z,76.22
2018-09-29T03:24:31.442Z,75.98
2018-09-29T03:26:58.898Z,76.27
2018-09-29T03:29:26.274Z,76.36
2018-09-29T03:31:53.759Z,76.47
2018-09-29T03:34:21.178Z,75.79
2018-09-29T03:36:48.586Z,76.14
2018-09-29T03:39:16.013Z,76.14
2018-09-29T03:41:43.491Z,76.02
2018-09-29T03:44:10.895Z,76.17
2018-09-29T03:46:39.118Z,75.90
2018-09-29T03:49:06.669Z,75.44
2018-09-29T03:51:34.182Z,75.48
2018-09-29T03:54:01.634Z,75.83
2018-09-29T03:56:29.129Z,75.68
2018-09-29T03:58:56.652Z,75.81
2018-09-29T04:01:24.579Z,75.87
2018-09-29T04:03:52.056Z,75.92
2018-09-29T04:06:19.567Z,76.16
2018-09-29T04:08:47.073Z,75.89
2018-09-29T04:11:14.763Z,76.31
2018-09-29T04:13:42.574Z,76.18
2018-09-29T04:16:09.998Z,76.14
2018-09-29T04:18:37.479Z,76.18
2018-09-29T04:21:04.978Z,75.81
2018-09-29T04:23:32.429Z,75.70
2018-09-29T04:25:59.934Z,75.85
2018-09-29T04:28:27.437Z,76.03
2018-09-29T04:30:54.932Z,76.27
2018-09-29T04:33:22.427Z,76.35
2018-09-29T04:35:49.876Z,76.32
2018-09-29T04:38:17.745Z,76.18
2018-09-29T04:40:45.176Z,76.23
2018-09-29T04:43:12.681Z,76.04
2018-09-29T04:45:40.169Z,75.71
2018-09-29T04:48:07.884Z,75.44
2018-09-29T04:50:35.345Z,75.27
2018-09-29T04:53:03.001Z,75.60
2018-09-29T04:55:30.745Z,75.63
2018-09-29T04:57:58.139Z,75.02
2018-09-29T05:00:25.677Z,75.04
2018-09-29T05:02:53.053Z,75.47
2018-09-29T05:05:20.607Z,75.85
2018-09-29T05:07:48.003Z,76.37
2018-09-29T05:10:15.477Z,76.05
2018-09-29T05:12:43.047Z,75.72
2018-09-29T05:15:10.531Z,75.67
2018-09-29T05:17:38.031Z,75.48
2018-09-29T05:20:05.722Z,75.61
2018-09-29T05:22:33.345Z,75.73
2018-09-29T05:25:00.853Z,75.79
2018-09-29T05:27:28.341Z,75.31
2018-09-29T05:29:55.792Z,75.05
2018-09-29T05:32:23.309Z,74.97
2018-09-29T05:34:50.706Z,75.01
2018-09-29T05:37:18.387Z,74.69
2018-09-29T05:39:45.809Z,74.39
2018-09-29T05:42:13.292Z,73.67
2018-09-29T05:44:40.729Z,73.33
2018-09-29T05:47:08.372Z,73.01
2018-09-29T05:49:35.802Z,71.81
2018-09-29T05:52:03.494Z,70.88
2018-09-29T05:54:30.988Z,68.06
2018-09-29T05:56:58.410Z,62.16
2018-09-29T05:59:25.839Z,59.62
2018-09-29T06:01:53.317Z,58.45
2018-09-29T06:04:20.767Z,59.07
2018-09-29T06:06:48.217Z,59.58
2018-09-29T06:09:15.605Z,59.43
2018-09-29T06:11:42.977Z,57.74
2018-09-29T06:14:10.418Z,55.39
2018-09-29T06:16:37.795Z,52.93
2018-09-29T06:19:05.278Z,50.80
2018-09-29T06:21:33.014Z,48.56
2018-09-29T06:24:00.411Z,47.10
2018-09-29T06:26:27.834Z,45.42
2018-09-29T06:28:55.505Z,44.04
2018-09-29T06:31:23.037Z,42.99
2018-09-29T06:33:50.433Z,42.61
2018-09-29T06:36:17.955Z,39.83
2018-09-29T06:38:45.488Z,36.29
2018-09-29T06:41:12.971Z,33.57
2018-09-29T06:43:40.425Z,30.79
2018-09-29T06:46:08.011Z,29.18
2018-09-29T06:48:35.410Z,27.77
2018-09-29T06:51:02.797Z,28.23
2018-09-29T06:53:30.214Z,26.68
2018-09-29T06:55:57.698Z,25.58
2018-09-29T06:58:25.113Z,25.60
2018-09-29T07:00:52.538Z,25.57
2018-09-29T07:03:20.002Z,27.47
2018-09-29T07:05:47.485Z,26.96
2018-09-29T07:08:15.075Z,27.17
2018-09-29T07:10:42.599Z,24.42
2018-09-29T07:13:10.127Z,24.37
2018-09-29T07:15:37.618Z,23.75
2018-09-29T07:18:05.063Z,22.32
2018-09-29T07:20:32.801Z,21.15
2018-09-29T07:23:00.322Z,19.36
2018-09-29T07:25:27.809Z,18.05
2018-09-29T07:27:55.217Z,17.38
2018-09-29T07:30:22.645Z,16.65
2018-09-29T07:32:50.245Z,16.55
2018-09-29T07:35:17.887Z,15.92
2018-09-29T07:37:45.439Z,14.93
2018-09-29T07:40:13.005Z,14.88
2018-09-29T07:42:40.527Z,15.25
2018-09-29T07:45:08.009Z,15.75
2018-09-29T07:47:35.508Z,15.10
2018-09-29T07:50:03.082Z,15.71
2018-09-29T07:52:30.503Z,15.90
2018-09-29T07:54:58.423Z,15.65
2018-09-29T07:57:25.821Z,14.84
2018-09-29T07:59:53.298Z,15.21
2018-09-29T08:02:20.674Z,14.13
2018-09-29T08:04:48.351Z,14.19
2018-09-29T08:07:15.928Z,15.40
2018-09-29T08:09:43.416Z,14.81
2018-09-29T08:12:10.906Z,13.76
2018-09-29T08:14:38.362Z,13.18
2018-09-29T08:17:06.067Z,12.25
2018-09-29T08:19:33.514Z,12.34
2018-09-29T08:22:00.914Z,13.94
2018-09-29T08:24:28.442Z,15.14
2018-09-29T08:26:55.782Z,15.02
2018-09-29T08:29:23.290Z,14.93
2018-09-29T08:31:50.920Z,15.51
2018-09-29T08:34:18.439Z,15.75
2018-09-29T08:36:45.962Z,16.41
2018-09-29T08:39:13.424Z,16.65
2018-09-29T08:41:40.866Z,15.98
2018-09-29T08:44:08.304Z,15.40
2018-09-29T08:46:35.775Z,15.24
2018-09-29T08:49:03.314Z,15.17
2018-09-29T08:51:30.752Z,15.99
2018-09-29T08:53:58.301Z,14.79
2018-09-29T08:56:25.787Z,14.09
2018-09-29T08:58:53.398Z,14.50
2018-09-29T09:01:20.890Z,15.40
2018-09-29T09:03:48.406Z,16.31
2018-09-29T09:06:16.098Z,17.86
2018-09-29T09:08:43.510Z,20.90
2018-09-29T09:11:11.010Z,20.83
2018-09-29T09:13:38.440Z,22.65
2018-09-29T09:16:06.114Z,24.11
2018-09-29T09:18:33.600Z,26.21
2018-09-29T09:21:01.138Z,29.30
2018-09-29T09:23:28.575Z,32.41
2018-09-29T09:25:56.087Z,33.96
2018-09-29T09:28:23.542Z,35.68
2018-09-29T09:30:51.196Z,36.32
2018-09-29T09:33:18.894Z,37.96
2018-09-29T09:35:46.333Z,38.51
2018-09-29T09:38:13.738Z,39.42
2018-09-29T09:40:41.669Z,39.84
2018-09-29T09:43:09.070Z,39.94
2018-09-29T09:45:36.748Z,41.32
2018-09-29T09:48:04.249Z,42.32
2018-09-29T09:50:31.674Z,41.80
2018-09-29T09:52:59.218Z,42.62
2018-09-29T09:55:26.690Z,42.83
2018-09-29T09:57:54.242Z,42.34
2018-09-29T10:00:26.283Z,43.12
2018-09-29T10:02:59.468Z,43.30
2018-09-29T10:05:26.907Z,43.38
2018-09-29T10:07:54.293Z,41.86
2018-09-29T10:10:21.894Z,42.37
2018-09-29T10:12:49.448Z,41.77
2018-09-29T10:15:16.934Z,41.42
2018-09-29T10:17:44.352Z,41.70
2018-09-29T10:20:11.816Z,41.22
2018-09-29T10:22:39.361Z,40.57
2018-09-29T10:25:06.931Z,41.02
2018-09-29T10:27:34.419Z,40.91
2018-09-29T10:30:01.946Z,41.22
2018-09-29T10:32:29.412Z,40.64
2018-09-29T10:34:56.837Z,39.36
2018-09-29T10:37:24.330Z,39.61
2018-09-29T10:39:51.701Z,39.39
2018-09-29T10:42:19.125Z,38.00
2018-09-29T10:44:46.511Z,38.49
2018-09-29T10:47:14.255Z,37.92
2018-09-29T10:49:41.666Z,38.53
2018-09-29T10:52:09.277Z,38.74
2018-09-29T10:54:36.802Z,37.80
2018-09-29T10:57:04.237Z,38.15
2018-09-29T10:59:31.709Z,38.31
2018-09-29T11:01:59.215Z,38.64
2018-09-29T11:04:26.643Z,37.83
2018-09-29T11:06:54.117Z,38.33
2018-09-29T11:09:21.679Z,38.54
2018-09-29T11:11:49.164Z,38.55
2018-09-29T11:14:16.599Z,38.00
2018-09-29T11:16:44.071Z,37.77
2018-09-29T11:19:11.560Z,37.58
2018-09-29T11:21:39.090Z,38.03
2018-09-29T11:24:06.649Z,38.70
2018-09-29T11:26:34.121Z,38.23
2018-09-29T11:29:01.557Z,38.55
2018-09-29T11:31:29.132Z,38.42
2018-09-29T11:33:56.625Z,38.30
2018-09-29T11:36:24.047Z,38.05
2018-09-29T11:38:51.603Z,37.70
2018-09-29T11:41:19.059Z,37.98
2018-09-29T11:43:46.760Z,38.27
2018-09-29T11:46:14.385Z,38.18
2018-09-29T11:48:41.841Z,38.33
2018-09-29T11:51:09.285Z,38.08
2018-09-29T11:53:37.047Z,38.11
2018-09-29T11:56:04.542Z,37.59
2018-09-29T11:58:31.962Z,38.15
2018-09-29T12:00:59.615Z,37.62
2018-09-29T12:03:27.025Z,38.09
2018-09-29T12:05:54.437Z,37.75
2018-09-29T12:08:21.923Z,38.13
2018-09-29T12:10:49.356Z,37.94
2018-09-29T12:13:16.840Z,37.48
2018-09-29T12:15:44.286Z,37.65
2018-09-29T12:18:11.667Z,38.21
2018-09-29T12:20:39.086Z,37.83
2018-09-29T12:23:06.563Z,37.62
2018-09-29T12:25:33.994Z,37.19
2018-09-29T12:28:01.454Z,37.14
2018-09-29T12:30:29.906Z,37.15
2018-09-29T12:32:57.338Z,37.42
2018-09-29T12:35:24.905Z,36.51
2018-09-29T12:37:52.626Z,36.66
2018-09-29T12:40:20.053Z,36.41
2018-09-29T12:42:47.463Z,36.27
2018-09-29T12:45:14.988Z,36.34
2018-09-29T12:47:42.382Z,36.57
2018-09-29T12:50:09.859Z,36.22
2018-09-29T12:52:37.468Z,36.14
2018-09-29T12:55:04.962Z,36.33
2018-09-29T12:57:32.416Z,35.93
2018-09-29T12:59:59.913Z,36.18
2018-09-29T13:02:27.304Z,36.63
2018-09-29T13:04:54.898Z,35.79
2018-09-29T13:07:22.406Z,35.54
2018-09-29T13:09:49.872Z,35.89
2018-09-29T13:12:17.415Z,34.87
2018-09-29T13:14:44.881Z,35.41
2018-09-29T13:17:12.244Z,35.22
2018-09-29T13:19:39.748Z,34.87
2018-09-29T13:22:07.705Z,34.48
2018-09-29T13:24:35.126Z,34.51
2018-09-29T13:27:02.598Z,34.60
2018-09-29T13:29:30.054Z,34.85
2018-09-29T13:31:57.558Z,34.63
2018-09-29T13:34:24.990Z,34.68
2018-09-29T13:36:52.898Z,34.62
2018-09-29T13:39:20.413Z,34.40
2018-09-29T13:41:47.823Z,34.53
2018-09-29T13:44:15.254Z,34.04
2018-09-29T13:46:42.735Z,33.82
2018-09-29T13:49:10.275Z,34.60
2018-09-29T13:51:38.125Z,34.37
2018-09-29T13:54:05.603Z,34.22
2018-09-29T13:56:33.081Z,34.04
2018-09-29T13:59:00.850Z,34.16
2018-09-29T14:01:28.309Z,33.90
2018-09-29T14:03:55.732Z,34.37
2018-09-29T14:06:23.319Z,33.90
2018-09-29T14:08:50.781Z,33.65
2018-09-29T14:11:18.252Z,34.09
2018-09-29T14:13:45.782Z,33.79
2018-09-29T14:16:13.227Z,33.52
2018-09-29T14:18:40.734Z,33.56
2018-09-29T14:21:08.224Z,33.45
2018-09-29T14:23:35.687Z,33.62
2018-09-29T14:26:03.701Z,34.02
2018-09-29T14:28:31.308Z,34.03
2018-09-29T14:30:58.745Z,33.90
2018-09-29T14:33:26.334Z,33.82
2018-09-29T14:35:53.844Z,33.99
2018-09-29T14:38:21.411Z,33.87
2018-09-29T14:40:49.137Z,33.93
2018-09-29T14:43:16.617Z,34.64
2018-09-29T14:45:44.062Z,34.92
2018-09-29T14:48:11.727Z,34.73
2018-09-29T14:50:39.302Z,33.81
2018-09-29T14:53:06.790Z,33.40
2018-09-29T14:55:34.401Z,33.48
2018-09-29T14:58:02.054Z,33.52
2018-09-29T15:00:29.410Z,33.46
2018-09-29T15:02:56.938Z,33.80
2018-09-29T15:05:24.600Z,33.45
2018-09-29T15:07:52.072Z,33.81
2018-09-29T15:10:19.705Z,33.60
2018-09-29T15:12:47.055Z,33.82
2018-09-29T15:15:14.500Z,34.01
2018-09-29T15:17:41.960Z,34.00
2018-09-29T15:20:09.610Z,33.97
2018-09-29T15:22:37.205Z,33.87
2018-09-29T15:25:05.044Z,34.62
2018-09-29T15:27:32.490Z,34.64
2018-09-29T15:29:59.941Z,34.59
2018-09-29T15:32:27.354Z,34.06
2018-09-29T15:34:54.832Z,34.46
2018-09-29T15:37:22.412Z,34.35
2018-09-29T15:39:49.987Z,34.32
2018-09-29T15:42:17.648Z,34.24
2018-09-29T15:44:45.182Z,33.64
2018-09-29T15:47:12.742Z,34.07
2018-09-29T15:49:40.239Z,34.33
2018-09-29T15:52:07.621Z,34.23
2018-09-29T15:54:35.047Z,34.80
2018-09-29T15:57:02.544Z,34.82
2018-09-29T15:59:30.136Z,35.10
2018-09-29T16:01:57.570Z,35.15
2018-09-29T16:04:25.018Z,34.98
2018-09-29T16:06:52.611Z,34.80
2018-09-29T16:09:20.073Z,34.95
2018-09-29T16:11:47.766Z,34.93
2018-09-29T16:14:15.286Z,35.29
2018-09-29T16:16:42.832Z,35.87
2018-09-29T16:19:10.321Z,35.76
2018-09-29T16:21:37.804Z,35.89
2018-09-29T16:24:05.719Z,36.25
2018-09-29T16:26:33.621Z,36.34
2018-09-29T16:29:01.395Z,36.41
2018-09-29T16:31:29.170Z,36.92
2018-09-29T16:33:56.727Z,36.74
2018-09-29T16:36:24.496Z,36.07
2018-09-29T16:38:52.502Z,36.63
2018-09-29T16:41:20.098Z,37.24
2018-09-29T16:43:47.565Z,37.65
2018-09-29T16:46:15.050Z,38.34
2018-09-29T16:48:42.594Z,37.83
2018-09-29T16:51:10.122Z,37.51
2018-09-29T16:53:37.794Z,38.00
2018-09-29T16:56:05.523Z,37.70
2018-09-29T16:58:33.002Z,37.68
2018-09-29T17:01:00.677Z,37.78
2018-09-29T17:03:28.241Z,37.93
2018-09-29T17:05:55.811Z,37.83
2018-09-29T17:08:23.303Z,38.41
2018-09-29T17:10:50.939Z,38.86
2018-09-29T17:13:18.371Z,38.89
2018-09-29T17:15:45.868Z,38.70
2018-09-29T17:18:13.650Z,38.91
2018-09-29T17:20:41.104Z,39.87
2018-09-29T17:23:08.490Z,39.94
2018-09-29T17:25:36.110Z,40.16
2018-09-29T17:28:03.574Z,40.70
2018-09-29T17:30:31.022Z,40.48
2018-09-29T17:32:58.488Z,40.35
2018-09-29T17:35:25.937Z,40.05
2018-09-29T17:37:53.396Z,39.94
2018-09-29T17:40:21.175Z,40.22
2018-09-29T17:42:48.742Z,40.52
2018-09-29T17:45:16.346Z,40.58
2018-09-29T17:47:43.772Z,41.06
2018-09-29T17:50:11.344Z,40.70
2018-09-29T17:52:38.834Z,40.85
2018-09-29T17:55:06.316Z,40.53
2018-09-29T17:57:34.230Z,41.26
2018-09-29T18:00:01.770Z,40.92
2018-09-29T18:02:29.355Z,40.91
2018-09-29T18:04:56.794Z,40.94
2018-09-29T18:07:24.400Z,41.15
2018-09-29T18:09:52.182Z,41.29
2018-09-29T18:12:19.657Z,41.78
2018-09-29T18:14:47.158Z,41.76
2018-09-29T18:17:14.795Z,41.93
2018-09-29T18:19:42.489Z,42.13
2018-09-29T18:22:11.360Z,42.29
2018-09-29T18:24:39.131Z,42.91
2018-09-29T18:27:06.776Z,43.86
2018-09-29T18:29:34.252Z,43.92
2018-09-29T18:32:01.729Z,44.03
2018-09-29T18:34:29.362Z,43.99
2018-09-29T18:36:56.936Z,43.99
2018-09-29T18:39:24.380Z,43.61
2018-09-29T18:41:51.950Z,43.54
2018-09-29T18:44:19.374Z,43.31
2018-09-29T18:46:46.903Z,42.96
2018-09-29T18:49:14.311Z,43.01
2018-09-29T18:51:41.980Z,43.03
2018-09-29T18:54:09.454Z,43.50
2018-09-29T18:56:37.216Z,43.61
2018-09-29T18:59:04.772Z,43.84
2018-09-29T19:01:32.274Z,44.40
2018-09-29T19:03:59.743Z,45.04
2018-09-29T19:06:27.222Z,46.03
2018-09-29T19:08:55.850Z,46.19
2018-09-29T19:11:23.284Z,46.73
2018-09-29T19:13:50.776Z,46.47
2018-09-29T19:16:18.324Z,47.13
2018-09-29T19:18:45.871Z,47.89
2018-09-29T19:21:13.362Z,47.28
2018-09-29T19:23:40.952Z,47.81
2018-09-29T19:26:08.862Z,47.90
2018-09-29T19:28:36.274Z,48.26
2018-09-29T19:31:04.201Z,47.87
2018-09-29T19:33:31.705Z,48.32
2018-09-29T19:35:59.266Z,48.68
2018-09-29T19:38:26.710Z,50.29
2018-09-29T19:40:54.211Z,50.90
2018-09-29T19:43:21.634Z,51.00
2018-09-29T19:45:49.119Z,52.47
2018-09-29T19:48:16.878Z,53.41
2018-09-29T19:50:44.331Z,54.27
2018-09-29T19:53:12.057Z,55.28
2018-09-29T19:55:39.522Z,55.63
2018-09-29T19:58:07.175Z,55.78
2018-09-29T20:00:34.899Z,56.40
2018-09-29T20:03:02.318Z,56.31
2018-09-29T20:05:29.905Z,56.50
2018-09-29T20:07:57.335Z,57.06
2018-09-29T20:10:24.774Z,57.26
2018-09-29T20:12:52.586Z,57.48
2018-09-29T20:15:20.058Z,57.88
2018-09-29T20:17:47.708Z,57.92
2018-09-29T20:20:15.135Z,57.42
2018-09-29T20:22:42.568Z,57.23
2018-09-29T20:25:10.256Z,57.53
2018-09-29T20:27:38.140Z,57.47
2018-09-29T20:30:05.746Z,57.59
2018-09-29T20:32:33.154Z,57.43
2018-09-29T20:35:00.624Z,57.63
2018-09-29T20:37:28.122Z,57.77
2018-09-29T20:39:56.193Z,58.19
2018-09-29T20:42:23.860Z,58.60
2018-09-29T20:44:51.823Z,58.60
2018-09-29T20:47:19.331Z,58.71
2018-09-29T20:49:46.791Z,58.95
2018-09-29T20:52:14.342Z,58.63
2018-09-29T20:54:41.725Z,58.03
2018-09-29T20:57:11.110Z,58.67
2018-09-29T20:59:39.353Z,58.71
2018-09-29T21:02:07.396Z,58.92
2018-09-29T21:04:34.818Z,59.07
2018-09-29T21:07:02.272Z,59.15
2018-09-29T21:09:29.703Z,59.59
2018-09-29T21:11:57.066Z,59.92
2018-09-29T21:14:24.658Z,59.99
2018-09-29T21:16:52.601Z,60.14
2018-09-29T21:19:20.137Z,60.46
2018-09-29T21:21:48.281Z,60.97
2018-09-29T21:24:15.689Z,61.26
2018-09-29T21:26:43.057Z,61.40
2018-09-29T21:29:10.638Z,61.26
2018-09-29T21:31:38.062Z,61.46
2018-09-29T21:34:06.310Z,61.47
2018-09-29T21:36:34.490Z,61.52
2018-09-29T21:39:02.043Z,61.65
2018-09-29T21:41:29.556Z,61.82
2018-09-29T21:43:56.993Z,61.78
2018-09-29T21:46:24.506Z,61.88
2018-09-29T21:48:52.142Z,61.58
2018-09-29T21:51:19.776Z,61.69
2018-09-29T21:53:47.273Z,61.38
2018-09-29T21:56:15.217Z,61.71
2018-09-29T21:58:42.790Z,62.08
2018-09-29T22:01:15.979Z,62.11
2018-09-29T22:03:43.724Z,61.96
2018-09-29T22:06:11.123Z,61.81
2018-09-29T22:08:38.553Z,61.99
2018-09-29T22:11:06.415Z,61.45
2018-09-29T22:13:33.912Z,61.65
2018-09-29T22:16:01.409Z,61.65
2018-09-29T22:18:28.872Z,61.76
2018-09-29T22:20:56.322Z,61.90
2018-09-29T22:23:23.790Z,62.05
2018-09-29T22:25:51.298Z,62.42
2018-09-29T22:28:18.691Z,62.63
2018-09-29T22:30:46.071Z,63.05
2018-09-29T22:33:13.674Z,63.64
2018-09-29T22:35:41.051Z,64.27
2018-09-29T22:38:08.447Z,64.67
2018-09-29T22:40:35.985Z,65.09
2018-09-29T22:43:03.452Z,65.36
2018-09-29T22:45:31.053Z,65.71
2018-09-29T22:47:58.637Z,65.78
2018-09-29T22:50:26.123Z,65.52
2018-09-29T22:52:53.542Z,65.74
2018-09-29T22:55:21.103Z,66.13
2018-09-29T22:57:48.707Z,65.85
2018-09-29T23:00:16.134Z,66.01
2018-09-29T23:02:43.713Z,66.17
2018-09-29T23:05:11.195Z,66.57
2018-09-29T23:07:38.628Z,66.29
2018-09-29T23:10:06.224Z,66.40
2018-09-29T23:12:33.675Z,66.11
2018-09-29T23:15:01.068Z,66.27
2018-09-29T23:17:28.539Z,66.29
2018-09-29T23:19:55.973Z,65.99
2018-09-29T23:22:23.407Z,65.99
2018-09-29T23:24:50.840Z,65.80
2018-09-29T23:27:18.275Z,65.95
2018-09-29T23:29:45.690Z,66.21
2018-09-29T23:32:13.215Z,66.17
2018-09-29T23:34:40.656Z,65.76
2018-09-29T23:37:09.155Z,65.43
2018-09-29T23:39:36.749Z,65.43
2018-09-29T23:42:04.186Z,65.07
2018-09-29T23:44:31.581Z,65.69
2018-09-29T23:46:59.115Z,65.65
2018-09-29T23:49:26.560Z,66.10
2018-09-29T23:51:54.039Z,66.68
2018-09-29T23:54:21.637Z,66.71
2018-09-29T23:56:48.996Z,67.43
2018-09-29T23:59:16.384Z,67.95
